sensor_id;sensor_type;location;lat;lon;timestamp;P1;durP1;ratioP1;P2;durP2;ratioP2
78664;SDS011;67981;51.022;-2.870;2023-06-14T00:01:36;8.87;;;6.50;;
78664;SDS011;67981;51.022;-2.870;2023-06-14T00:04:03;9.85;;;6.85;;
78664;SDS011;67981;51.022;-2.870;2023-06-14T00:06:30;8.85;;;7.82;;
78664;SDS011;67981;51.022;-2.870;2023-06-14T00:08:56;11.43;;;6.95;;
78664;SDS011;67981;51.022;-2.870;2023-06-14T00:11:21;8.37;;;7.10;;
78664;SDS011;67981;51.022;-2.870;2023-06-14T00:13:47;7.97;;;6.45;;
78664;SDS011;67981;51.022;-2.870;2023-06-14T00:16:12;8.65;;;7.03;;
78664;SDS011;67981;51.022;-2.870;2023-06-14T00:18:38;9.80;;;6.45;;
78664;SDS011;67981;51.022;-2.870;2023-06-14T00:21:03;10.80;;;7.30;;
78664;SDS011;67981;51.022;-2.870;2023-06-14T00:23:29;9.90;;;7.60;;
78664;SDS011;67981;51.022;-2.870;2023-06-14T00:25:54;10.40;;;7.25;;
78664;SDS011;67981;51.022;-2.870;2023-06-14T00:28:20;9.00;;;6.70;;
78664;SDS011;67981;51.022;-2.870;2023-06-14T00:30:45;10.88;;;7.28;;
78664;SDS011;67981;51.022;-2.870;2023-06-14T00:33:11;9.13;;;6.43;;
78664;SDS011;67981;51.022;-2.870;2023-06-14T00:35:37;9.23;;;6.72;;
78664;SDS011;67981;51.022;-2.870;2023-06-14T00:38:02;7.53;;;6.70;;
78664;SDS011;67981;51.022;-2.870;2023-06-14T00:40:28;8.70;;;6.60;;
78664;SDS011;67981;51.022;-2.870;2023-06-14T00:42:53;11.20;;;7.18;;
78664;SDS011;67981;51.022;-2.870;2023-06-14T00:45:19;9.48;;;7.10;;
78664;SDS011;67981;51.022;-2.870;2023-06-14T00:47:45;10.20;;;7.95;;
78664;SDS011;67981;51.022;-2.870;2023-06-14T00:50:11;9.18;;;7.28;;
78664;SDS011;67981;51.022;-2.870;2023-06-14T00:52:38;8.50;;;6.82;;
78664;SDS011;67981;51.022;-2.870;2023-06-14T00:55:04;9.77;;;6.75;;
78664;SDS011;67981;51.022;-2.870;2023-06-14T00:57:31;9.15;;;6.65;;
78664;SDS011;67981;51.022;-2.870;2023-06-14T00:59:56;7.82;;;6.95;;
78664;SDS011;67981;51.022;-2.870;2023-06-14T01:02:22;8.85;;;7.18;;
78664;SDS011;67981;51.022;-2.870;2023-06-14T01:04:49;9.18;;;6.55;;
78664;SDS011;67981;51.022;-2.870;2023-06-14T01:15:32;8.02;;;6.72;;
78664;SDS011;67981;51.022;-2.870;2023-06-14T01:17:57;9.55;;;6.82;;
78664;SDS011;67981;51.022;-2.870;2023-06-14T01:20:29;9.82;;;6.95;;
78664;SDS011;67981;51.022;-2.870;2023-06-14T01:22:56;9.10;;;7.18;;
78664;SDS011;67981;51.022;-2.870;2023-06-14T01:25:22;11.02;;;6.22;;
78664;SDS011;67981;51.022;-2.870;2023-06-14T01:27:48;11.30;;;7.75;;
78664;SDS011;67981;51.022;-2.870;2023-06-14T01:30:15;9.55;;;7.50;;
78664;SDS011;67981;51.022;-2.870;2023-06-14T01:32:42;12.43;;;8.00;;
78664;SDS011;67981;51.022;-2.870;2023-06-14T01:35:08;8.40;;;6.93;;
78664;SDS011;67981;51.022;-2.870;2023-06-14T01:37:33;7.82;;;6.75;;
78664;SDS011;67981;51.022;-2.870;2023-06-14T01:39:59;10.35;;;7.40;;
78664;SDS011;67981;51.022;-2.870;2023-06-14T01:42:26;10.05;;;7.68;;
78664;SDS011;67981;51.022;-2.870;2023-06-14T01:44:52;8.70;;;6.80;;
78664;SDS011;67981;51.022;-2.870;2023-06-14T01:47:19;8.52;;;7.63;;
78664;SDS011;67981;51.022;-2.870;2023-06-14T01:49:46;9.60;;;7.25;;
78664;SDS011;67981;51.022;-2.870;2023-06-14T01:52:11;10.43;;;7.80;;
78664;SDS011;67981;51.022;-2.870;2023-06-14T01:54:37;13.32;;;8.35;;
78664;SDS011;67981;51.022;-2.870;2023-06-14T01:57:07;9.95;;;6.93;;
78664;SDS011;67981;51.022;-2.870;2023-06-14T01:59:33;9.30;;;6.93;;
78664;SDS011;67981;51.022;-2.870;2023-06-14T02:02:00;12.45;;;7.80;;
78664;SDS011;67981;51.022;-2.870;2023-06-14T02:04:26;10.30;;;7.47;;
78664;SDS011;67981;51.022;-2.870;2023-06-14T02:06:51;12.57;;;8.43;;
78664;SDS011;67981;51.022;-2.870;2023-06-14T02:09:17;10.73;;;8.33;;
78664;SDS011;67981;51.022;-2.870;2023-06-14T02:11:43;10.82;;;8.32;;
78664;SDS011;67981;51.022;-2.870;2023-06-14T02:14:08;12.07;;;7.88;;
78664;SDS011;67981;51.022;-2.870;2023-06-14T02:16:36;10.73;;;7.10;;
78664;SDS011;67981;51.022;-2.870;2023-06-14T02:19:02;11.88;;;8.05;;
78664;SDS011;67981;51.022;-2.870;2023-06-14T02:21:27;12.75;;;7.88;;
78664;SDS011;67981;51.022;-2.870;2023-06-14T02:23:53;12.73;;;7.75;;
78664;SDS011;67981;51.022;-2.870;2023-06-14T02:26:18;9.90;;;8.05;;
78664;SDS011;67981;51.022;-2.870;2023-06-14T02:28:43;13.02;;;8.43;;
78664;SDS011;67981;51.022;-2.870;2023-06-14T02:31:09;11.27;;;7.97;;
78664;SDS011;67981;51.022;-2.870;2023-06-14T02:33:34;9.82;;;7.75;;
78664;SDS011;67981;51.022;-2.870;2023-06-14T02:36:00;11.67;;;7.23;;
78664;SDS011;67981;51.022;-2.870;2023-06-14T02:38:27;11.00;;;7.10;;
78664;SDS011;67981;51.022;-2.870;2023-06-14T02:40:53;9.07;;;7.13;;
78664;SDS011;67981;51.022;-2.870;2023-06-14T02:43:18;11.68;;;7.47;;
78664;SDS011;67981;51.022;-2.870;2023-06-14T02:45:43;11.63;;;7.13;;
78664;SDS011;67981;51.022;-2.870;2023-06-14T02:48:09;9.80;;;7.20;;
78664;SDS011;67981;51.022;-2.870;2023-06-14T02:50:36;9.55;;;7.50;;
78664;SDS011;67981;51.022;-2.870;2023-06-14T02:53:01;11.00;;;6.95;;
78664;SDS011;67981;51.022;-2.870;2023-06-14T02:55:27;8.77;;;6.80;;
78664;SDS011;67981;51.022;-2.870;2023-06-14T02:57:53;9.15;;;7.00;;
78664;SDS011;67981;51.022;-2.870;2023-06-14T03:00:19;10.68;;;6.90;;
78664;SDS011;67981;51.022;-2.870;2023-06-14T03:02:45;10.40;;;7.28;;
78664;SDS011;67981;51.022;-2.870;2023-06-14T03:05:10;9.90;;;7.35;;
78664;SDS011;67981;51.022;-2.870;2023-06-14T03:07:36;9.57;;;7.50;;
78664;SDS011;67981;51.022;-2.870;2023-06-14T03:10:06;10.07;;;7.25;;
78664;SDS011;67981;51.022;-2.870;2023-06-14T03:12:35;15.90;;;7.82;;
78664;SDS011;67981;51.022;-2.870;2023-06-14T03:15:01;9.85;;;7.20;;
78664;SDS011;67981;51.022;-2.870;2023-06-14T03:17:27;8.52;;;6.45;;
78664;SDS011;67981;51.022;-2.870;2023-06-14T03:19:55;9.40;;;7.20;;
78664;SDS011;67981;51.022;-2.870;2023-06-14T03:22:20;9.57;;;6.95;;
78664;SDS011;67981;51.022;-2.870;2023-06-14T03:24:47;10.77;;;7.10;;
78664;SDS011;67981;51.022;-2.870;2023-06-14T03:27:13;10.50;;;7.18;;
78664;SDS011;67981;51.022;-2.870;2023-06-14T03:29:39;8.05;;;6.30;;
78664;SDS011;67981;51.022;-2.870;2023-06-14T03:32:05;10.38;;;6.85;;
78664;SDS011;67981;51.022;-2.870;2023-06-14T03:34:30;10.48;;;7.20;;
78664;SDS011;67981;51.022;-2.870;2023-06-14T03:36:56;10.57;;;7.15;;
78664;SDS011;67981;51.022;-2.870;2023-06-14T03:39:21;11.15;;;7.63;;
78664;SDS011;67981;51.022;-2.870;2023-06-14T03:41:47;11.73;;;6.57;;
78664;SDS011;67981;51.022;-2.870;2023-06-14T03:44:14;8.82;;;6.70;;
78664;SDS011;67981;51.022;-2.870;2023-06-14T03:46:40;11.60;;;7.85;;
78664;SDS011;67981;51.022;-2.870;2023-06-14T03:49:06;8.90;;;7.40;;
78664;SDS011;67981;51.022;-2.870;2023-06-14T03:51:31;9.68;;;6.88;;
78664;SDS011;67981;51.022;-2.870;2023-06-14T03:53:56;10.50;;;6.85;;
78664;SDS011;67981;51.022;-2.870;2023-06-14T03:56:22;9.70;;;6.45;;
78664;SDS011;67981;51.022;-2.870;2023-06-14T03:58:47;10.07;;;6.30;;
78664;SDS011;67981;51.022;-2.870;2023-06-14T04:01:13;8.40;;;6.63;;
78664;SDS011;67981;51.022;-2.870;2023-06-14T04:03:39;9.43;;;6.18;;
78664;SDS011;67981;51.022;-2.870;2023-06-14T04:06:05;13.68;;;6.63;;
78664;SDS011;67981;51.022;-2.870;2023-06-14T04:08:31;12.23;;;6.32;;
78664;SDS011;67981;51.022;-2.870;2023-06-14T04:10:56;11.40;;;6.82;;
78664;SDS011;67981;51.022;-2.870;2023-06-14T04:13:22;9.23;;;6.07;;
78664;SDS011;67981;51.022;-2.870;2023-06-14T04:15:47;8.00;;;5.80;;
78664;SDS011;67981;51.022;-2.870;2023-06-14T04:18:13;9.38;;;5.78;;
78664;SDS011;67981;51.022;-2.870;2023-06-14T04:20:38;9.10;;;6.00;;
78664;SDS011;67981;51.022;-2.870;2023-06-14T04:23:15;10.43;;;6.03;;
78664;SDS011;67981;51.022;-2.870;2023-06-14T04:25:42;8.43;;;6.10;;
78664;SDS011;67981;51.022;-2.870;2023-06-14T04:28:10;12.07;;;6.22;;
78664;SDS011;67981;51.022;-2.870;2023-06-14T04:30:36;7.35;;;6.05;;
78664;SDS011;67981;51.022;-2.870;2023-06-14T04:33:03;9.25;;;6.05;;
78664;SDS011;67981;51.022;-2.870;2023-06-14T04:35:30;8.88;;;5.75;;
78664;SDS011;67981;51.022;-2.870;2023-06-14T04:37:57;8.73;;;6.53;;
78664;SDS011;67981;51.022;-2.870;2023-06-14T04:40:24;8.32;;;6.28;;
78664;SDS011;67981;51.022;-2.870;2023-06-14T04:42:49;10.70;;;6.20;;
78664;SDS011;67981;51.022;-2.870;2023-06-14T04:45:16;9.20;;;6.88;;
78664;SDS011;67981;51.022;-2.870;2023-06-14T04:47:41;10.45;;;6.72;;
78664;SDS011;67981;51.022;-2.870;2023-06-14T04:50:07;8.23;;;6.68;;
78664;SDS011;67981;51.022;-2.870;2023-06-14T04:52:33;7.85;;;5.53;;
78664;SDS011;67981;51.022;-2.870;2023-06-14T04:55:00;8.75;;;6.45;;
78664;SDS011;67981;51.022;-2.870;2023-06-14T04:57:26;10.43;;;5.72;;
78664;SDS011;67981;51.022;-2.870;2023-06-14T04:59:52;7.63;;;5.90;;
78664;SDS011;67981;51.022;-2.870;2023-06-14T05:02:23;12.40;;;6.85;;
78664;SDS011;67981;51.022;-2.870;2023-06-14T05:04:50;10.20;;;6.70;;
78664;SDS011;67981;51.022;-2.870;2023-06-14T05:07:15;8.88;;;6.45;;
78664;SDS011;67981;51.022;-2.870;2023-06-14T05:09:41;12.07;;;6.80;;
78664;SDS011;67981;51.022;-2.870;2023-06-14T05:12:07;9.52;;;7.32;;
78664;SDS011;67981;51.022;-2.870;2023-06-14T05:14:35;11.32;;;7.50;;
78664;SDS011;67981;51.022;-2.870;2023-06-14T05:17:01;7.57;;;5.53;;
78664;SDS011;67981;51.022;-2.870;2023-06-14T05:19:27;8.30;;;5.80;;
78664;SDS011;67981;51.022;-2.870;2023-06-14T05:21:53;6.95;;;5.50;;
78664;SDS011;67981;51.022;-2.870;2023-06-14T05:24:18;8.38;;;6.00;;
78664;SDS011;67981;51.022;-2.870;2023-06-14T05:26:44;7.57;;;5.85;;
78664;SDS011;67981;51.022;-2.870;2023-06-14T05:29:10;8.63;;;5.65;;
78664;SDS011;67981;51.022;-2.870;2023-06-14T05:31:36;10.73;;;5.45;;
78664;SDS011;67981;51.022;-2.870;2023-06-14T05:34:01;10.27;;;6.97;;
78664;SDS011;67981;51.022;-2.870;2023-06-14T05:36:27;9.32;;;7.18;;
78664;SDS011;67981;51.022;-2.870;2023-06-14T05:38:52;8.93;;;7.05;;
78664;SDS011;67981;51.022;-2.870;2023-06-14T05:41:27;11.20;;;7.78;;
78664;SDS011;67981;51.022;-2.870;2023-06-14T05:43:56;12.88;;;8.18;;
78664;SDS011;67981;51.022;-2.870;2023-06-14T05:46:22;12.18;;;6.68;;
78664;SDS011;67981;51.022;-2.870;2023-06-14T05:48:53;13.00;;;7.20;;
78664;SDS011;67981;51.022;-2.870;2023-06-14T05:51:20;10.88;;;6.95;;
78664;SDS011;67981;51.022;-2.870;2023-06-14T05:53:48;9.60;;;7.30;;
78664;SDS011;67981;51.022;-2.870;2023-06-14T05:56:14;11.73;;;8.45;;
78664;SDS011;67981;51.022;-2.870;2023-06-14T05:58:40;10.45;;;7.43;;
78664;SDS011;67981;51.022;-2.870;2023-06-14T06:01:06;11.93;;;7.75;;
78664;SDS011;67981;51.022;-2.870;2023-06-14T06:03:31;10.57;;;7.70;;
78664;SDS011;67981;51.022;-2.870;2023-06-14T06:05:57;10.63;;;7.55;;
78664;SDS011;67981;51.022;-2.870;2023-06-14T06:08:23;13.07;;;8.00;;
78664;SDS011;67981;51.022;-2.870;2023-06-14T06:10:48;11.13;;;7.53;;
78664;SDS011;67981;51.022;-2.870;2023-06-14T06:13:14;9.93;;;7.18;;
78664;SDS011;67981;51.022;-2.870;2023-06-14T06:15:39;11.07;;;6.90;;
78664;SDS011;67981;51.022;-2.870;2023-06-14T06:18:04;10.23;;;7.18;;
78664;SDS011;67981;51.022;-2.870;2023-06-14T06:20:30;14.27;;;6.90;;
78664;SDS011;67981;51.022;-2.870;2023-06-14T06:22:59;12.13;;;7.03;;
78664;SDS011;67981;51.022;-2.870;2023-06-14T06:25:25;8.95;;;5.88;;
78664;SDS011;67981;51.022;-2.870;2023-06-14T06:27:56;8.38;;;5.82;;
78664;SDS011;67981;51.022;-2.870;2023-06-14T06:30:22;6.40;;;5.30;;
78664;SDS011;67981;51.022;-2.870;2023-06-14T06:32:47;8.95;;;5.00;;
78664;SDS011;67981;51.022;-2.870;2023-06-14T06:35:13;9.25;;;5.20;;
78664;SDS011;67981;51.022;-2.870;2023-06-14T06:37:39;5.65;;;4.30;;
78664;SDS011;67981;51.022;-2.870;2023-06-14T06:40:04;7.18;;;4.32;;
78664;SDS011;67981;51.022;-2.870;2023-06-14T06:42:31;8.27;;;4.10;;
78664;SDS011;67981;51.022;-2.870;2023-06-14T06:44:57;6.90;;;4.15;;
78664;SDS011;67981;51.022;-2.870;2023-06-14T06:47:22;6.07;;;3.60;;
78664;SDS011;67981;51.022;-2.870;2023-06-14T06:49:48;6.10;;;3.28;;
78664;SDS011;67981;51.022;-2.870;2023-06-14T06:52:13;7.20;;;3.75;;
78664;SDS011;67981;51.022;-2.870;2023-06-14T06:54:39;6.53;;;4.00;;
78664;SDS011;67981;51.022;-2.870;2023-06-14T06:57:04;4.85;;;3.45;;
78664;SDS011;67981;51.022;-2.870;2023-06-14T06:59:31;5.30;;;3.47;;
78664;SDS011;67981;51.022;-2.870;2023-06-14T07:01:57;6.13;;;3.45;;
78664;SDS011;67981;51.022;-2.870;2023-06-14T07:04:22;6.50;;;3.80;;
78664;SDS011;67981;51.022;-2.870;2023-06-14T07:06:48;5.10;;;3.28;;
78664;SDS011;67981;51.022;-2.870;2023-06-14T07:09:13;6.22;;;3.67;;
78664;SDS011;67981;51.022;-2.870;2023-06-14T07:11:40;10.60;;;3.63;;
78664;SDS011;67981;51.022;-2.870;2023-06-14T07:14:06;6.75;;;3.70;;
78664;SDS011;67981;51.022;-2.870;2023-06-14T07:16:31;5.70;;;3.20;;
78664;SDS011;67981;51.022;-2.870;2023-06-14T07:18:57;6.38;;;3.45;;
78664;SDS011;67981;51.022;-2.870;2023-06-14T07:21:22;8.90;;;4.32;;
78664;SDS011;67981;51.022;-2.870;2023-06-14T07:23:48;4.50;;;3.67;;
78664;SDS011;67981;51.022;-2.870;2023-06-14T07:26:13;4.85;;;3.50;;
78664;SDS011;67981;51.022;-2.870;2023-06-14T07:28:38;6.15;;;3.72;;
78664;SDS011;67981;51.022;-2.870;2023-06-14T07:31:04;6.57;;;3.20;;
78664;SDS011;67981;51.022;-2.870;2023-06-14T07:33:29;9.27;;;3.60;;
78664;SDS011;67981;51.022;-2.870;2023-06-14T07:35:54;5.28;;;3.55;;
78664;SDS011;67981;51.022;-2.870;2023-06-14T07:38:20;5.68;;;3.40;;
78664;SDS011;67981;51.022;-2.870;2023-06-14T07:40:45;7.15;;;3.92;;
78664;SDS011;67981;51.022;-2.870;2023-06-14T07:43:11;6.63;;;3.63;;
78664;SDS011;67981;51.022;-2.870;2023-06-14T07:45:36;5.95;;;3.75;;
78664;SDS011;67981;51.022;-2.870;2023-06-14T07:48:02;5.05;;;2.90;;
78664;SDS011;67981;51.022;-2.870;2023-06-14T07:50:28;5.32;;;3.53;;
78664;SDS011;67981;51.022;-2.870;2023-06-14T07:52:54;4.43;;;3.35;;
78664;SDS011;67981;51.022;-2.870;2023-06-14T07:55:19;4.90;;;3.30;;
78664;SDS011;67981;51.022;-2.870;2023-06-14T07:57:44;5.55;;;3.00;;
78664;SDS011;67981;51.022;-2.870;2023-06-14T08:00:10;5.13;;;2.97;;
78664;SDS011;67981;51.022;-2.870;2023-06-14T08:02:44;6.63;;;3.05;;
78664;SDS011;67981;51.022;-2.870;2023-06-14T08:05:12;6.82;;;3.53;;
78664;SDS011;67981;51.022;-2.870;2023-06-14T08:07:38;4.68;;;3.20;;
78664;SDS011;67981;51.022;-2.870;2023-06-14T08:10:04;5.47;;;3.28;;
78664;SDS011;67981;51.022;-2.870;2023-06-14T08:12:31;5.97;;;3.45;;
78664;SDS011;67981;51.022;-2.870;2023-06-14T08:14:56;6.30;;;3.17;;
78664;SDS011;67981;51.022;-2.870;2023-06-14T08:17:22;5.20;;;3.13;;
78664;SDS011;67981;51.022;-2.870;2023-06-14T08:19:47;6.60;;;4.15;;
78664;SDS011;67981;51.022;-2.870;2023-06-14T08:22:12;5.63;;;3.13;;
78664;SDS011;67981;51.022;-2.870;2023-06-14T08:24:38;5.65;;;3.22;;
78664;SDS011;67981;51.022;-2.870;2023-06-14T08:27:04;4.20;;;3.00;;
78664;SDS011;67981;51.022;-2.870;2023-06-14T08:29:30;3.97;;;3.05;;
78664;SDS011;67981;51.022;-2.870;2023-06-14T08:31:56;4.47;;;3.13;;
78664;SDS011;67981;51.022;-2.870;2023-06-14T08:34:21;6.18;;;2.70;;
78664;SDS011;67981;51.022;-2.870;2023-06-14T08:36:49;6.07;;;2.75;;
78664;SDS011;67981;51.022;-2.870;2023-06-14T08:39:15;5.45;;;2.42;;
78664;SDS011;67981;51.022;-2.870;2023-06-14T08:41:41;5.85;;;2.65;;
78664;SDS011;67981;51.022;-2.870;2023-06-14T08:44:09;3.40;;;2.50;;
78664;SDS011;67981;51.022;-2.870;2023-06-14T08:46:35;6.00;;;2.47;;
78664;SDS011;67981;51.022;-2.870;2023-06-14T08:49:02;4.15;;;2.22;;
78664;SDS011;67981;51.022;-2.870;2023-06-14T08:51:30;9.45;;;3.08;;
78664;SDS011;67981;51.022;-2.870;2023-06-14T08:54:01;4.20;;;2.55;;
78664;SDS011;67981;51.022;-2.870;2023-06-14T08:56:29;7.30;;;2.72;;
78664;SDS011;67981;51.022;-2.870;2023-06-14T08:58:55;5.90;;;2.88;;
78664;SDS011;67981;51.022;-2.870;2023-06-14T09:01:28;4.35;;;2.38;;
78664;SDS011;67981;51.022;-2.870;2023-06-14T09:03:54;6.60;;;2.83;;
78664;SDS011;67981;51.022;-2.870;2023-06-14T09:06:22;5.65;;;2.70;;
78664;SDS011;67981;51.022;-2.870;2023-06-14T09:08:49;5.38;;;2.60;;
78664;SDS011;67981;51.022;-2.870;2023-06-14T09:11:16;3.58;;;2.22;;
78664;SDS011;67981;51.022;-2.870;2023-06-14T09:13:43;4.13;;;2.33;;
78664;SDS011;67981;51.022;-2.870;2023-06-14T09:16:10;4.97;;;2.42;;
78664;SDS011;67981;51.022;-2.870;2023-06-14T09:18:36;4.30;;;2.22;;
78664;SDS011;67981;51.022;-2.870;2023-06-14T09:21:03;5.03;;;2.13;;
78664;SDS011;67981;51.022;-2.870;2023-06-14T09:23:32;5.63;;;2.72;;
78664;SDS011;67981;51.022;-2.870;2023-06-14T09:25:59;3.97;;;2.25;;
78664;SDS011;67981;51.022;-2.870;2023-06-14T09:28:27;8.77;;;2.65;;
78664;SDS011;67981;51.022;-2.870;2023-06-14T09:30:53;3.35;;;2.03;;
78664;SDS011;67981;51.022;-2.870;2023-06-14T09:33:18;4.35;;;2.42;;
78664;SDS011;67981;51.022;-2.870;2023-06-14T09:35:50;4.70;;;2.72;;
78664;SDS011;67981;51.022;-2.870;2023-06-14T09:38:16;3.40;;;2.10;;
78664;SDS011;67981;51.022;-2.870;2023-06-14T09:40:41;3.25;;;2.15;;
78664;SDS011;67981;51.022;-2.870;2023-06-14T09:43:07;4.72;;;2.15;;
78664;SDS011;67981;51.022;-2.870;2023-06-14T09:45:35;4.97;;;2.40;;
78664;SDS011;67981;51.022;-2.870;2023-06-14T09:48:04;6.15;;;2.53;;
78664;SDS011;67981;51.022;-2.870;2023-06-14T09:50:31;4.97;;;3.10;;
78664;SDS011;67981;51.022;-2.870;2023-06-14T09:52:57;5.68;;;2.53;;
78664;SDS011;67981;51.022;-2.870;2023-06-14T09:55:36;4.82;;;2.40;;
78664;SDS011;67981;51.022;-2.870;2023-06-14T09:58:04;4.78;;;2.28;;
78664;SDS011;67981;51.022;-2.870;2023-06-14T10:00:31;4.10;;;2.08;;
78664;SDS011;67981;51.022;-2.870;2023-06-14T10:03:00;4.35;;;2.47;;
78664;SDS011;67981;51.022;-2.870;2023-06-14T10:05:31;5.25;;;2.40;;
78664;SDS011;67981;51.022;-2.870;2023-06-14T10:08:04;4.80;;;2.55;;
78664;SDS011;67981;51.022;-2.870;2023-06-14T10:10:33;3.13;;;2.22;;
78664;SDS011;67981;51.022;-2.870;2023-06-14T10:12:58;4.95;;;1.98;;
78664;SDS011;67981;51.022;-2.870;2023-06-14T10:15:45;4.72;;;2.50;;
78664;SDS011;67981;51.022;-2.870;2023-06-14T10:18:29;5.82;;;3.22;;
78664;SDS011;67981;51.022;-2.870;2023-06-14T10:21:22;5.63;;;2.22;;
78664;SDS011;67981;51.022;-2.870;2023-06-14T10:23:53;3.63;;;2.60;;
78664;SDS011;67981;51.022;-2.870;2023-06-14T10:29:00;4.60;;;2.47;;
78664;SDS011;67981;51.022;-2.870;2023-06-14T10:31:41;7.13;;;2.42;;
78664;SDS011;67981;51.022;-2.870;2023-06-14T10:34:08;6.15;;;2.20;;
78664;SDS011;67981;51.022;-2.870;2023-06-14T10:36:33;5.60;;;2.85;;
78664;SDS011;67981;51.022;-2.870;2023-06-14T10:39:16;4.60;;;2.22;;
78664;SDS011;67981;51.022;-2.870;2023-06-14T10:41:50;4.47;;;2.53;;
78664;SDS011;67981;51.022;-2.870;2023-06-14T10:46:46;6.07;;;2.58;;
78664;SDS011;67981;51.022;-2.870;2023-06-14T10:49:12;5.97;;;2.83;;
78664;SDS011;67981;51.022;-2.870;2023-06-14T10:51:44;4.18;;;2.55;;
78664;SDS011;67981;51.022;-2.870;2023-06-14T10:54:13;5.28;;;2.70;;
78664;SDS011;67981;51.022;-2.870;2023-06-14T10:56:45;7.75;;;2.53;;
78664;SDS011;67981;51.022;-2.870;2023-06-14T10:59:12;7.47;;;2.88;;
78664;SDS011;67981;51.022;-2.870;2023-06-14T11:02:27;6.18;;;3.20;;
78664;SDS011;67981;51.022;-2.870;2023-06-14T11:04:49;4.97;;;2.78;;
78664;SDS011;67981;51.022;-2.870;2023-06-14T11:15:13;6.13;;;2.80;;
78664;SDS011;67981;51.022;-2.870;2023-06-14T11:17:39;4.82;;;2.72;;
78664;SDS011;67981;51.022;-2.870;2023-06-14T11:20:11;5.75;;;3.53;;
78664;SDS011;67981;51.022;-2.870;2023-06-14T11:22:44;5.95;;;2.80;;
78664;SDS011;67981;51.022;-2.870;2023-06-14T11:25:13;5.75;;;3.03;;
78664;SDS011;67981;51.022;-2.870;2023-06-14T11:27:38;6.75;;;2.67;;
78664;SDS011;67981;51.022;-2.870;2023-06-14T11:30:06;5.90;;;2.72;;
78664;SDS011;67981;51.022;-2.870;2023-06-14T11:32:32;6.22;;;2.92;;
78664;SDS011;67981;51.022;-2.870;2023-06-14T11:34:58;4.65;;;2.63;;
78664;SDS011;67981;51.022;-2.870;2023-06-14T11:37:25;5.78;;;2.67;;
78664;SDS011;67981;51.022;-2.870;2023-06-14T11:39:56;7.82;;;3.10;;
78664;SDS011;67981;51.022;-2.870;2023-06-14T11:42:26;4.72;;;2.67;;
78664;SDS011;67981;51.022;-2.870;2023-06-14T11:44:53;3.83;;;2.72;;
78664;SDS011;67981;51.022;-2.870;2023-06-14T11:47:19;6.97;;;2.97;;
78664;SDS011;67981;51.022;-2.870;2023-06-14T11:49:44;4.40;;;2.33;;
78664;SDS011;67981;51.022;-2.870;2023-06-14T11:52:09;7.15;;;2.40;;
78664;SDS011;67981;51.022;-2.870;2023-06-14T11:54:36;6.32;;;2.95;;
78664;SDS011;67981;51.022;-2.870;2023-06-14T11:57:02;3.22;;;2.28;;
78664;SDS011;67981;51.022;-2.870;2023-06-14T11:59:28;4.95;;;2.42;;
78664;SDS011;67981;51.022;-2.870;2023-06-14T12:01:56;6.80;;;3.33;;
78664;SDS011;67981;51.022;-2.870;2023-06-14T12:04:28;4.60;;;2.50;;
78664;SDS011;67981;51.022;-2.870;2023-06-14T12:06:54;4.53;;;2.55;;
78664;SDS011;67981;51.022;-2.870;2023-06-14T12:09:20;4.78;;;2.60;;
78664;SDS011;67981;51.022;-2.870;2023-06-14T12:11:48;3.88;;;2.40;;
78664;SDS011;67981;51.022;-2.870;2023-06-14T12:14:14;4.75;;;2.88;;
78664;SDS011;67981;51.022;-2.870;2023-06-14T12:16:40;11.13;;;3.30;;
78664;SDS011;67981;51.022;-2.870;2023-06-14T12:19:13;5.25;;;2.95;;
78664;SDS011;67981;51.022;-2.870;2023-06-14T12:21:40;5.50;;;3.55;;
78664;SDS011;67981;51.022;-2.870;2023-06-14T12:24:06;5.43;;;2.90;;
78664;SDS011;67981;51.022;-2.870;2023-06-14T12:26:32;5.05;;;3.10;;
78664;SDS011;67981;51.022;-2.870;2023-06-14T12:28:58;4.18;;;2.97;;
78664;SDS011;67981;51.022;-2.870;2023-06-14T12:31:23;4.68;;;2.60;;
78664;SDS011;67981;51.022;-2.870;2023-06-14T12:33:49;7.43;;;4.05;;
78664;SDS011;67981;51.022;-2.870;2023-06-14T12:36:15;6.50;;;3.20;;
78664;SDS011;67981;51.022;-2.870;2023-06-14T12:38:41;4.68;;;2.95;;
78664;SDS011;67981;51.022;-2.870;2023-06-14T12:41:07;7.72;;;3.33;;
78664;SDS011;67981;51.022;-2.870;2023-06-14T12:43:33;4.38;;;2.80;;
78664;SDS011;67981;51.022;-2.870;2023-06-14T12:45:58;6.20;;;2.85;;
78664;SDS011;67981;51.022;-2.870;2023-06-14T12:48:24;4.32;;;3.15;;
78664;SDS011;67981;51.022;-2.870;2023-06-14T12:50:52;4.25;;;3.10;;
78664;SDS011;67981;51.022;-2.870;2023-06-14T12:53:17;5.10;;;3.33;;
78664;SDS011;67981;51.022;-2.870;2023-06-14T12:55:43;6.63;;;3.60;;
78664;SDS011;67981;51.022;-2.870;2023-06-14T12:58:09;6.78;;;4.00;;
78664;SDS011;67981;51.022;-2.870;2023-06-14T13:00:37;5.97;;;3.78;;
78664;SDS011;67981;51.022;-2.870;2023-06-14T13:03:03;8.52;;;5.95;;
78664;SDS011;67981;51.022;-2.870;2023-06-14T13:05:28;7.57;;;3.95;;
78664;SDS011;67981;51.022;-2.870;2023-06-14T13:07:56;6.15;;;3.38;;
78664;SDS011;67981;51.022;-2.870;2023-06-14T13:10:21;5.50;;;3.60;;
78664;SDS011;67981;51.022;-2.870;2023-06-14T13:12:46;5.60;;;4.10;;
78664;SDS011;67981;51.022;-2.870;2023-06-14T13:15:12;7.40;;;3.85;;
78664;SDS011;67981;51.022;-2.870;2023-06-14T13:17:37;8.40;;;4.43;;
78664;SDS011;67981;51.022;-2.870;2023-06-14T13:20:06;6.57;;;3.83;;
78664;SDS011;67981;51.022;-2.870;2023-06-14T13:22:36;8.07;;;3.70;;
78664;SDS011;67981;51.022;-2.870;2023-06-14T13:25:01;6.38;;;3.60;;
78664;SDS011;67981;51.022;-2.870;2023-06-14T13:27:28;5.68;;;3.83;;
78664;SDS011;67981;51.022;-2.870;2023-06-14T13:29:53;4.95;;;3.75;;
78664;SDS011;67981;51.022;-2.870;2023-06-14T13:32:20;5.25;;;3.40;;
78664;SDS011;67981;51.022;-2.870;2023-06-14T13:34:46;4.93;;;3.60;;
78664;SDS011;67981;51.022;-2.870;2023-06-14T13:37:12;8.85;;;4.07;;
78664;SDS011;67981;51.022;-2.870;2023-06-14T13:39:37;5.47;;;4.20;;
78664;SDS011;67981;51.022;-2.870;2023-06-14T13:42:04;8.45;;;4.47;;
78664;SDS011;67981;51.022;-2.870;2023-06-14T13:44:29;7.30;;;4.30;;
78664;SDS011;67981;51.022;-2.870;2023-06-14T13:46:55;7.57;;;4.85;;
78664;SDS011;67981;51.022;-2.870;2023-06-14T13:49:20;7.10;;;4.53;;
78664;SDS011;67981;51.022;-2.870;2023-06-14T13:51:45;5.60;;;4.15;;
78664;SDS011;67981;51.022;-2.870;2023-06-14T13:54:14;6.43;;;4.05;;
78664;SDS011;67981;51.022;-2.870;2023-06-14T13:56:43;6.75;;;4.35;;
78664;SDS011;67981;51.022;-2.870;2023-06-14T13:59:09;7.10;;;4.50;;
78664;SDS011;67981;51.022;-2.870;2023-06-14T14:01:35;7.05;;;4.18;;
78664;SDS011;67981;51.022;-2.870;2023-06-14T14:04:01;7.32;;;4.05;;
78664;SDS011;67981;51.022;-2.870;2023-06-14T14:06:27;7.75;;;4.47;;
78664;SDS011;67981;51.022;-2.870;2023-06-14T14:08:52;11.30;;;4.65;;
78664;SDS011;67981;51.022;-2.870;2023-06-14T14:11:18;5.57;;;3.95;;
78664;SDS011;67981;51.022;-2.870;2023-06-14T14:13:45;6.25;;;4.22;;
78664;SDS011;67981;51.022;-2.870;2023-06-14T14:16:12;9.10;;;4.35;;
78664;SDS011;67981;51.022;-2.870;2023-06-14T14:18:38;9.55;;;4.38;;
78664;SDS011;67981;51.022;-2.870;2023-06-14T14:21:03;6.63;;;4.15;;
78664;SDS011;67981;51.022;-2.870;2023-06-14T14:23:29;7.47;;;4.47;;
78664;SDS011;67981;51.022;-2.870;2023-06-14T14:25:54;5.55;;;4.35;;
78664;SDS011;67981;51.022;-2.870;2023-06-14T14:28:20;6.85;;;4.40;;
78664;SDS011;67981;51.022;-2.870;2023-06-14T14:30:46;9.88;;;4.90;;
78664;SDS011;67981;51.022;-2.870;2023-06-14T14:33:12;6.18;;;4.72;;
78664;SDS011;67981;51.022;-2.870;2023-06-14T14:35:44;6.95;;;4.80;;
78664;SDS011;67981;51.022;-2.870;2023-06-14T14:38:13;9.38;;;4.53;;
78664;SDS011;67981;51.022;-2.870;2023-06-14T14:40:40;7.35;;;4.25;;
78664;SDS011;67981;51.022;-2.870;2023-06-14T14:43:07;7.75;;;4.70;;
78664;SDS011;67981;51.022;-2.870;2023-06-14T14:45:32;6.63;;;4.53;;
78664;SDS011;67981;51.022;-2.870;2023-06-14T14:47:58;6.20;;;4.63;;
78664;SDS011;67981;51.022;-2.870;2023-06-14T14:50:24;9.38;;;5.00;;